Map

Track Data

SID SEASON NUMBER BASIN SUBBASIN NAME ISO_TIME NATURE LAT LON WMO_WIND WMO_PRES WMO_AGENCY TRACK_TYPE DIST2LAND LANDFALL IFLAG USA_AGENCY USA_ATCF_ID USA_LAT USA_LON USA_RECORD USA_STATUS USA_WIND USA_PRES USA_SSHS USA_R34_NE USA_R34_SE USA_R34_SW USA_R34_NW USA_R50_NE USA_R50_SE USA_R50_SW USA_R50_NW USA_R64_NE USA_R64_SE USA_R64_SW USA_R64_NW USA_POCI USA_ROCI USA_RMW USA_EYE TOKYO_LAT TOKYO_LON TOKYO_GRADE TOKYO_WIND TOKYO_PRES TOKYO_R50_DIR TOKYO_R50_LONG TOKYO_R50_SHORT TOKYO_R30_DIR TOKYO_R30_LONG TOKYO_R30_SHORT TOKYO_LAND CMA_LAT CMA_LON CMA_CAT CMA_WIND CMA_PRES HKO_LAT HKO_LON HKO_CAT HKO_WIND HKO_PRES NEWDELHI_LAT NEWDELHI_LON NEWDELHI_GRADE NEWDELHI_WIND NEWDELHI_PRES NEWDELHI_CI NEWDELHI_DP NEWDELHI_POCI REUNION_LAT REUNION_LON REUNION_TYPE REUNION_WIND REUNION_PRES REUNION_TNUM REUNION_CI REUNION_RMW REUNION_R34_NE REUNION_R34_SE REUNION_R34_SW REUNION_R34_NW REUNION_R50_NE REUNION_R50_SE REUNION_R50_SW REUNION_R50_NW REUNION_R64_NE REUNION_R64_SE REUNION_R64_SW REUNION_R64_NW BOM_LAT BOM_LON BOM_TYPE BOM_WIND BOM_PRES BOM_TNUM BOM_CI BOM_RMW BOM_R34_NE BOM_R34_SE BOM_R34_SW BOM_R34_NW BOM_R50_NE BOM_R50_SE BOM_R50_SW BOM_R50_NW BOM_R64_NE BOM_R64_SE BOM_R64_SW BOM_R64_NW BOM_ROCI BOM_POCI BOM_EYE BOM_POS_METHOD BOM_PRES_METHOD NADI_LAT NADI_LON NADI_CAT NADI_WIND NADI_PRES WELLINGTON_LAT WELLINGTON_LON WELLINGTON_WIND WELLINGTON_PRES DS824_LAT DS824_LON DS824_STAGE DS824_WIND DS824_PRES TD9636_LAT TD9636_LON TD9636_STAGE TD9636_WIND TD9636_PRES TD9635_LAT TD9635_LON TD9635_WIND TD9635_PRES TD9635_ROCI NEUMANN_LAT NEUMANN_LON NEUMANN_CLASS NEUMANN_WIND NEUMANN_PRES MLC_LAT MLC_LON MLC_CLASS MLC_WIND MLC_PRES USA_GUST BOM_GUST BOM_GUST_PER REUNION_GUST REUNION_GUST_PER USA_SEAHGT USA_SEARAD_NE USA_SEARAD_SE USA_SEARAD_SW USA_SEARAD_NW STORM_SPEED STORM_DIR
1949163N07145 1949 38 WP MM DELLA 1949-06-12 00:00:00 TS 6.60000 145.000 main 991 991 __O___________ -1 6.60000 145.000 0 1008 13 270
1949163N07145 1949 38 WP MM DELLA 1949-06-12 03:00:00 TS 6.60023 144.322 main 1007 1007 __P___________ -1 6.60023 144.322 0 1008 13 270
1949163N07145 1949 38 WP MM DELLA 1949-06-12 06:00:00 TS 6.60000 143.700 main 1026 1026 __O___________ -1 6.60000 143.700 0 1008 11 270
1949163N07145 1949 38 WP MM DELLA 1949-06-12 09:00:00 TS 6.59990 143.170 main 1045 1040 __P___________ -1 6.59990 143.170 0 1008 10 270
1949163N07145 1949 38 WP MM DELLA 1949-06-12 12:00:00 TS 6.60000 142.700 main 1040 1022 __O___________ -1 6.60000 142.700 0 1008 9 270
1949163N07145 1949 38 WP MM DELLA 1949-06-12 15:00:00 TS 6.59992 142.250 main 1022 1002 __P___________ -1 6.59992 142.250 0 1008 9 270
1949163N07145 1949 38 WP MM DELLA 1949-06-12 18:00:00 TS 6.60000 141.800 main 1002 981 __O___________ -1 6.60000 141.800 0 1008 10 270
1949163N07145 1949 38 WP MM DELLA 1949-06-12 21:00:00 TS 6.60003 141.285 main 981 963 __P___________ -1 6.60003 141.285 0 1007 10 270
1949163N07145 1949 38 WP MM DELLA 1949-06-13 00:00:00 TS 6.60000 140.800 main 963 953 __O___________ -1 6.60000 140.800 0 1006 8 269
1949163N07145 1949 38 WP MM DELLA 1949-06-13 03:00:00 TS 6.59240 140.435 main 950 942 __P___________ -1 6.59240 140.435 0 1006 7 270
1949163N07145 1949 38 WP MM DELLA 1949-06-13 06:00:00 TS 6.60000 140.100 main 942 930 __O___________ -1 6.60000 140.100 0 1006 7 274
1949163N07145 1949 38 WP MM DELLA 1949-06-13 09:00:00 TS 6.64250 139.700 main 930 921 __P___________ -1 6.64250 139.700 0 1006 8 277
1949163N07145 1949 38 WP MM DELLA 1949-06-13 12:00:00 TS 6.70000 139.300 main 921 908 __O___________ -1 6.70000 139.300 0 1006 7 278
1949163N07145 1949 38 WP MM DELLA 1949-06-13 15:00:00 TS 6.74242 138.957 main 908 902 __P___________ -1 6.74242 138.957 0 1006 7 278
1949163N07145 1949 38 WP MM DELLA 1949-06-13 18:00:00 TS 6.80000 138.600 main 902 895 __O___________ -1 6.80000 138.600 0 1006 8 281
1949163N07145 1949 38 WP MM DELLA 1949-06-13 21:00:00 TS 6.89254 138.150 main 899 889 __P___________ -1 6.89254 138.150 0 1005 9 283
1949163N07145 1949 38 WP MM DELLA 1949-06-14 00:00:00 TS 7.00000 137.700 main 893 888 __O___________ -1 7.00000 137.700 0 1005 8 284
1949163N07145 1949 38 WP MM DELLA 1949-06-14 03:00:00 TS 7.09242 137.342 main 894 891 __P___________ -1 7.09242 137.342 0 1005 7 286
1949163N07145 1949 38 WP MM DELLA 1949-06-14 06:00:00 TS 7.20000 137.000 main 898 896 __O___________ -1 7.20000 137.000 0 1005 8 289
1949163N07145 1949 38 WP MM DELLA 1949-06-14 09:00:00 TS 7.34248 136.607 main 903 903 __P___________ -1 7.34248 136.607 0 1005 9 291
1949163N07145 1949 38 WP MM DELLA 1949-06-14 12:00:00 TS 7.50000 136.200 main 921 920 __O___________ -1 7.50000 136.200 0 1005 9 290
1949163N07145 1949 38 WP MM DELLA 1949-06-14 15:00:00 TS 7.63498 135.792 main 930 930 __P___________ -1 7.63498 135.792 0 1005 8 291
1949163N07145 1949 38 WP MM DELLA 1949-06-14 18:00:00 TS 7.80000 135.400 main 950 937 __O___________ -1 7.80000 135.400 0 1005 8 298
1949163N07145 1949 38 WP MM DELLA 1949-06-14 21:00:00 TS 8.03495 135.042 main 926 895 __P___________ -1 8.03495 135.042 0 1005 9 306
1949163N07145 1949 38 WP MM DELLA 1949-06-15 00:00:00 TS 8.30000 134.700 main 895 864 __O___________ -1 8.30000 134.700 0 1005 9 307
1949163N07145 1949 38 WP MM DELLA 1949-06-15 03:00:00 TS 8.54995 134.357 main 864 824 __P___________ -1 8.54995 134.357 0 1005 9 306
1949163N07145 1949 38 WP MM DELLA 1949-06-15 06:00:00 TS 8.80000 134.000 main 824 784 __O___________ -1 8.80000 134.000 0 1005 9 303
1949163N07145 1949 38 WP MM DELLA 1949-06-15 09:00:00 TS 9.04250 133.600 main 784 748 __P___________ -1 9.04250 133.600 0 1005 9 302
1949163N07145 1949 38 WP MM DELLA 1949-06-15 12:00:00 TS 9.30000 133.200 main 748 721 __O___________ -1 9.30000 133.200 0 1005 9 306
1949163N07145 1949 38 WP MM DELLA 1949-06-15 15:00:00 TS 9.57742 132.850 main 714 691 __P___________ -1 9.57742 132.850 0 1005 9 311
1949163N07145 1949 38 WP MM DELLA 1949-06-15 18:00:00 TS 9.90000 132.500 main 691 655 __O___________ -1 9.90000 132.500 0 1005 10 314
1949163N07145 1949 38 WP MM DELLA 1949-06-15 21:00:00 TS 10.2850 132.107 main 658 658 __P___________ -1 10.2850 132.107 0 1005 15 354
1949163N07145 1949 38 WP MM DELLA 1949-06-16 00:00:00 TS 11.3500 132.350 main 721 693 O_O______OOO__ jtwc_wp WP021949 12.0000 133.000 25 -1 10.7000 131.700 0 1005 12.0000 133.000 TC 25 12.0000 133.000 1 25 12.0000 133.000 25 1001 60 16 359
1949163N07145 1949 38 WP MM DELLA 1949-06-16 03:00:00 TS 11.8625 132.099 main 694 656 P_P______PPP__ WP021949 12.2326 132.523 27 -1 11.1000 131.292 0 1004 12.2326 132.523 TC 27 12.2774 132.443 1 27 12.2326 132.523 27 1000 60 11 325
1949163N07145 1949 38 WP MM DELLA 1949-06-16 06:00:00 TS 12.2619 131.704 main 659 625 O_O______OPO__ jtwc_wp WP021949 12.5000 132.000 30 -1 11.5000 130.900 1 29 1004 12.5000 132.000 TC 30 12.5634 131.888 1 30 12.5000 132.000 30 1000 60 12 312
1949163N07145 1949 38 WP MM DELLA 1949-06-16 09:00:00 TS 12.6455 131.224 main 614 571 P_P______PPP__ WP021949 12.8275 131.407 32 -1 11.8774 130.557 1 29 1004 12.8275 131.407 TC 32 12.8677 131.339 1 32 12.8275 131.407 32 1000 90 13 307
1949163N07145 1949 38 WP MM DELLA 1949-06-16 12:00:00 TS 13.0200 130.680 main 571 527 O_O______OOO__ jtwc_wp WP021949 13.2000 130.800 35 0 12.3000 130.200 1 29 1004 13.2000 130.800 TC 35 13.2000 130.800 2 35 13.2000 130.800 35 1000 120 13 307
1949163N07145 1949 38 WP MM DELLA 1949-06-16 15:00:00 TS 13.4415 130.141 main 516 489 P_P______PPP__ WP021949 13.5999 130.227 37 0 12.8426 129.750 1 29 1004 13.5999 130.227 TC 37 13.5653 130.273 2 38 13.5999 130.227 37 999 120 13 310
1949163N07145 1949 38 WP MM DELLA 1949-06-16 18:00:00 TS 13.8699 129.633 main 483 459 O_O______OPO__ jtwc_wp WP021949 14.0000 129.700 40 0 13.4000 129.300 1 29 1004 14.0000 129.700 TC 40 13.9497 129.763 2 42 14.0000 129.700 40 999 120 12 311
1949163N07145 1949 38 WP MM DELLA 1949-06-16 21:00:00 TS 14.2632 129.179 main 464 446 P_P______PPP__ WP021949 14.3724 129.227 45 0 13.8648 128.942 1 33 1003 14.3724 129.227 TC 45 14.3342 129.270 2 46 14.3724 129.227 45 998 150 11 312
1949163N07145 1949 38 WP MM DELLA 1949-06-17 00:00:00 TS 14.6200 128.760 main 446 435 O_O______OOO__ jtwc_wp WP021949 14.7000 128.800 50 0 14.3000 128.600 2 38 1002 14.7000 128.800 TC 50 14.7000 128.800 2 50 14.7000 128.800 50 998 180 10 310
1949163N07145 1949 38 WP MM DELLA 1949-06-17 03:00:00 TS 14.9269 128.347 main 427 414 P_P______PPP__ WP021949 14.9498 128.400 55 0 14.7650 128.200 2 38 1001 14.9498 128.400 TC 55 15.0202 128.337 2 52 14.9498 128.400 55 997 180 10 307
1949163N07145 1949 38 WP MM DELLA 1949-06-17 06:00:00 TS 15.2240 127.940 main 403 378 O_O______OPO__ jtwc_wp WP021949 15.2000 128.000 60 0 15.2000 127.800 2 38 1000 15.2000 128.000 TC 60 15.3201 127.898 2 55 15.2000 128.000 60 997 180 10 308
1949163N07145 1949 38 WP MM DELLA 1949-06-17 09:00:00 TS 15.5605 127.511 main 383 366 P_P______PPP__ WP021949 15.5425 127.543 60 0 15.5649 127.442 2 38 999 15.5425 127.543 TC 60 15.6100 127.485 2 57 15.5425 127.543 60 996 240 11 310
1949163N07145 1949 38 WP MM DELLA 1949-06-17 12:00:00 TS 15.9000 127.100 main 366 356 O_O______OOO__ jtwc_wp WP021949 15.9000 127.100 60 0 15.9000 127.100 2 38 998 15.9000 127.100 TC 60 15.9000 127.100 2 60 15.9000 127.100 60 995 300 10 311
1949163N07145 1949 38 WP MM DELLA 1949-06-17 15:00:00 TS 16.2159 126.732 main 356 356 P_P______PPP__ WP021949 16.2074 126.727 65 1 16.2575 126.742 2 43 997 16.2074 126.727 TC 65 16.1999 126.734 2 65 16.2074 126.727 65 994 300 9 313
1949163N07145 1949 38 WP MM DELLA 1949-06-17 18:00:00 TS 16.5200 126.400 main 359 359 O_O______OOO__ jtwc_wp WP021949 16.5000 126.400 70 1 16.6000 126.400 3 48 996 16.5000 126.400 TC 70 16.5000 126.400 3 70 16.5000 126.400 70 993 300 9 314
1949163N07145 1949 38 WP MM DELLA 1949-06-17 21:00:00 TS 16.8160 126.091 main 368 351 P_P______PPP__ WP021949 16.7924 126.092 77 1 16.9074 126.092 3 53 994 16.7924 126.092 TC 77 16.7951 126.084 3 77 16.7924 126.092 77 991 330 8 316
1949163N07145 1949 38 WP MM DELLA 1949-06-18 00:00:00 TS 17.1200 125.800 main 351 321 O_O______OOO__ jtwc_wp WP021949 17.1000 125.800 85 2 17.2000 125.800 3 58 992 17.1000 125.800 TC 85 17.1000 125.800 4 85 17.1000 125.800 85 990 360 9 318
1949163N07145 1949 38 WP MM DELLA 1949-06-18 03:00:00 TS 17.4524 125.487 main 323 300 P_P______PPP__ WP021949 17.4425 125.478 85 2 17.5075 125.485 3 63 990 17.4425 125.478 TC 85 17.4270 125.515 4 85 17.4425 125.478 85 988 330 9 320
1949163N07145 1949 38 WP MM DELLA 1949-06-18 06:00:00 TS 17.7946 125.212 main 300 286 O_O______OPO__ jtwc_wp WP021949 17.8000 125.200 85 2 17.8000 125.200 4 68 988 17.8000 125.200 TC 85 17.7728 125.258 4 85 17.8000 125.200 85 987 300 8 326
1949163N07145 1949 38 WP MM DELLA 1949-06-18 09:00:00 TS 18.1279 125.015 main 286 274 P_P______PPP__ WP021949 18.1499 125.012 85 2 18.0574 124.992 4 72 986 18.1499 125.012 TC 85 18.1321 125.047 4 85 18.1499 125.012 85 985 300 7 335
1949163N07145 1949 38 WP MM DELLA 1949-06-18 12:00:00 TS 18.4600 124.880 main 274 263 O_O______OOO__ jtwc_wp WP021949 18.5000 124.900 85 2 18.3000 124.800 4 77 984 18.5000 124.900 TC 85 18.5000 124.900 4 85 18.5000 124.900 85 984 300 7 340
1949163N07145 1949 38 WP MM DELLA 1949-06-18 15:00:00 TS 18.7818 124.762 main 267 256 P_P______PPP__ WP021949 18.8425 124.820 85 2 18.5425 124.550 4 82 982 18.8425 124.820 TC 85 18.8391 124.799 4 86 18.8425 124.820 85 981 300 7 345
1949163N07145 1949 38 WP MM DELLA 1949-06-18 18:00:00 TS 19.1179 124.693 main 264 264 O_O______OPO__ jtwc_wp WP021949 19.2000 124.800 85 2 18.8000 124.300 5 87 980 19.2000 124.800 TC 85 19.1897 124.766 4 87 19.2000 124.800 85 979 300 7 352
1949163N07145 1949 38 WP MM DELLA 1949-06-18 21:00:00 TS 19.4730 124.654 main 280 280 P_P______PPP__ WP021949 19.5850 124.827 87 2 19.0399 123.988 5 87 980 19.5850 124.827 TC 87 19.5704 124.799 4 88 19.5850 124.827 87 976 300 8 0
1949163N07145 1949 38 WP MM DELLA 1949-06-19 00:00:00 TS 19.8800 124.700 main 302 302 O_O______OOO__ jtwc_wp WP021949 20.0000 124.900 90 2 19.4000 123.900 5 87 980 20.0000 124.900 TC 90 20.0000 124.900 4 90 20.0000 124.900 90 974 300 9 11
1949163N07145 1949 38 WP MM DELLA 1949-06-19 03:00:00 TS 20.3350 124.839 main 337 337 P_P______PPP__ WP021949 20.4124 124.956 90 2 19.9829 124.302 5 92 979 20.4124 124.956 TC 90 20.4549 125.029 4 92 20.4124 124.956 90 971 330 11 20
1949163N07145 1949 38 WP MM DELLA 1949-06-19 06:00:00 TS 20.8730 125.085 main 405 405 O_O______OPO__ jtwc_wp WP021949 20.9000 125.100 90 2 20.7000 124.900 5 97 978 20.9000 125.100 TC 90 20.9649 125.225 4 95 20.9000 125.100 90 969 360 13 25
1949163N07145 1949 38 WP MM DELLA 1949-06-19 09:00:00 TS 21.5000 125.424 main 448 448 P_P______PPP__ WP021949 21.4976 125.405 95 2 21.4652 125.424 5 97 978 21.4976 125.405 TC 95 21.5423 125.483 4 97 21.4976 125.405 95 964 330 15 27
1949163N07145 1949 38 WP MM DELLA 1949-06-19 12:00:00 TS 22.2000 125.800 main 462 459 O_O______OOO__ jtwc_wp WP021949 22.2000 125.800 100 3 22.2000 125.800 5 97 978 22.2000 125.800 TC 100 22.2000 125.800 4 100 22.2000 125.800 100 959 300 16 24
1949163N07145 1949 38 WP MM DELLA 1949-06-19 15:00:00 TS 22.9089 126.107 main 463 458 P_P______PPP__ WP021949 22.9699 126.185 95 2 22.7498 125.846 5 97 976 22.9699 126.185 TC 95 22.8850 126.131 4 95 22.9699 126.185 95 955 300 16 21
1949163N07145 1949 38 WP MM DELLA 1949-06-19 18:00:00 TS 23.6710 126.424 main 465 465 O_O______OPO__ jtwc_wp WP021949 23.8000 126.600 90 2 23.3000 125.800 5 97 974 23.8000 126.600 TC 90 23.6548 126.521 4 90 23.8000 126.600 90 952 300 17 21
1949163N07145 1949 38 WP MM DELLA 1949-06-19 21:00:00 TS 24.4544 126.754 main 487 486 P_P______PPP__ WP021949 24.5970 127.000 85 2 23.9589 125.796 5 97 974 24.5970 127.000 TC 85 24.5221 126.976 4 85 24.5970 127.000 85 953 330 18 23
1949163N07145 1949 38 WP MM DELLA 1949-06-20 00:00:00 TS 25.3600 127.220 main 524 524 O_O______OOO__ jtwc_wp WP021949 25.5000 127.500 80 1 24.8000 126.100 5 97 974 25.5000 127.500 TC 80 25.5000 127.500 4 80 25.5000 127.500 80 954 360 23 29
1949163N07145 1949 38 WP MM DELLA 1949-06-20 03:00:00 TS 26.4382 127.974 main 576 421 P_P______PPP__ WP021949 26.5907 128.227 77 1 25.8242 127.022 5 106 967 26.5907 128.227 TC 77 26.5949 128.169 4 72 26.5907 128.227 77 956 390 27 32
1949163N07145 1949 38 WP MM DELLA 1949-06-20 06:00:00 TS 27.6584 128.820 main 411 271 O_O______OPO__ jtwc_wp WP021949 27.8000 129.000 75 1 27.1000 128.200 6 116 960 27.8000 129.000 TC 75 27.7918 128.899 4 65 27.8000 129.000 75 958 420 29 30
1949163N07145 1949 38 WP MM DELLA 1949-06-20 09:00:00 TS 28.9141 129.573 main 257 101 P_P______PPP__ WP021949 28.9599 129.654 62 0 28.6483 129.294 6 116 960 28.9599 129.654 TC 62 29.0423 129.606 4 57 28.9599 129.654 62 961 360 29 25
1949163N07145 1949 38 WP MM DELLA 1949-06-20 12:00:00 TS 30.3000 130.200 main 91 0 O_O______OOO__ jtwc_wp WP021949 30.3000 130.200 50 0 30.3000 130.200 6 116 960 30.3000 130.200 TC 50 30.3000 130.200 2 50 30.3000 130.200 50 964 300 32 17
1949163N07145 1949 38 WP MM DELLA 1949-06-20 15:00:00 TS 31.9866 130.683 main 0 0 P_P______PPP__ WP021949 32.1398 130.680 50 0 31.9111 130.774 6 101 967 32.1398 130.680 TC 50 31.6027 130.599 2 50 32.1398 130.680 50 967 300 33 12
1949163N07145 1949 38 WP MM DELLA 1949-06-20 18:00:00 TS 33.5183 130.973 main 0 0 O_O______OPO__ jtwc_wp WP021949 33.8000 131.000 50 0 33.3000 131.000 5 87 974 33.8000 131.000 TC 50 32.8916 130.865 2 50 33.8000 131.000 50 971 300 25 7
1949163N07145 1949 38 WP MM DELLA 1949-06-20 21:00:00 TS 34.4591 131.061 main 22 22 P_P______PPP__ WP021949 34.6369 131.113 50 0 34.2996 130.943 5 82 977 34.6369 131.113 TC 50 34.0849 131.023 2 50 34.6369 131.113 50 975 300 16 1
1949163N07145 1949 38 WP MM DELLA 1949-06-21 00:00:00 TS 35.0800 131.020 main 78 78 O_O______OOO__ jtwc_wp WP021949 35.1000 131.100 50 0 35.0000 130.700 4 77 980 35.1000 131.100 TC 50 35.1000 131.100 2 50 35.1000 131.100 50 979 300 12 357
1949163N07145 1949 38 WP MM DELLA 1949-06-21 03:00:00 TS 35.6732 130.994 main 130 116 P_P______PPP__ WP021949 35.6075 131.115 50 0 35.6650 130.500 4 77 982 35.6075 131.115 TC 50 35.8784 131.122 2 48 35.6075 131.115 50 982 300 11 356
1949163N07145 1949 38 WP MM DELLA 1949-06-21 06:00:00 TS 36.1379 130.923 main 117 112 O_O______OPO__ jtwc_wp WP021949 36.1000 131.100 50 0 36.0000 130.300 4 77 984 36.1000 131.100 TC 50 36.4609 131.104 2 47 36.1000 131.100 50 985 300 9 347
1949163N07145 1949 38 WP MM DELLA 1949-06-21 09:00:00 TS 36.5117 130.758 main 117 106 P_P______PPP__ WP021949 36.7222 130.977 47 0 35.8095 130.021 4 67 988 36.7222 130.977 TC 47 36.9130 131.059 2 46 36.6725 131.058 47 988 300 7 346
1949163N07145 1949 38 WP MM DELLA 1949-06-21 12:00:00 TS 36.7857 130.714 main 107 107 O_O______OOO__ jtwc_wp WP021949 37.3000 131.000 45 0 35.5000 130.000 3 58 992 37.3000 131.000 TC 45 37.3000 131.000 2 45 37.3000 131.000 45 991 300 5 26
1949163N07145 1949 38 WP MM DELLA 1949-06-21 15:00:00 TS 36.9652 131.038 main 137 137 P_P______P____ WP021949 37.7248 131.379 42 0 35.4459 130.356 3 53 993 37.7248 131.379 TC 42 2 10 62
1949163N07145 1949 38 WP MM DELLA 1949-06-21 18:00:00 TS 37.2333 131.767 main 211 211 O_O______O____ jtwc_wp WP021949 38.0000 132.000 40 0 35.7000 131.300 3 48 994 38.0000 132.000 TC 40 2 15 69
1949163N07145 1949 38 WP MM DELLA 1949-06-21 21:00:00 TS 37.5221 132.818 main 222 222 P_P______P____ WP021949 38.1153 132.722 40 0 36.3358 133.010 3 43 995 38.1153 132.722 TC 40 2 19 70
1949163N07145 1949 38 WP MM DELLA 1949-06-22 00:00:00 TS 37.8667 134.000 main 249 186 O_O______O____ jtwc_wp WP021949 38.2000 133.500 40 0 37.2000 135.000 2 38 996 38.2000 133.500 TC 40 20 65
1949163N07145 1949 38 WP MM DELLA 1949-06-22 03:00:00 TS 38.3484 135.071 main 179 159 P_P______P____ WP021949 38.4423 134.229 37 0 38.1606 136.754 2 38 997 38.4423 134.229 TC 37 20 61
1949163N07145 1949 38 WP MM DELLA 1949-06-22 06:00:00 TS 38.8200 136.180 main 164 164 O_O______O____ jtwc_wp WP021949 38.7000 134.900 35 0 39.0000 138.100 2 38 998 38.7000 134.900 TC 35 18 63
1949163N07145 1949 38 WP MM DELLA 1949-06-22 09:00:00 TS 39.1495 137.111 main 189 163 P_P______P____ WP021949 38.8778 135.478 35 0 39.4213 138.744 2 33 999 38.8778 135.478 TC 35 16 65
1949163N07145 1949 38 WP MM DELLA 1949-06-22 12:00:00 TS 39.4667 138.000 main 151 43 O_O______O____ jtwc_wp WP021949 39.0000 136.000 35 0 39.7000 139.000 1 29 1000 39.0000 136.000 TC 35 19 60
1949163N07145 1949 38 WP MM DELLA 1949-06-22 15:00:00 TS 40.1145 139.301 main 40 27 __P___________ WP021949 -1 40.1145 139.301 1 29 1001 TC 16 50
1949163N07145 1949 38 WP MM DELLA 1949-06-22 18:00:00 ET 40.5000 139.600 main 27 8 __O___________ -1 40.5000 139.600 9 29 1002 8 36
1949163N07145 1949 38 WP MM DELLA 1949-06-22 21:00:00 ET 40.7787 139.946 main 13 0 __P___________ -1 40.7787 139.946 9 26 1002 8 54
1949163N07145 1949 38 WP MM DELLA 1949-06-23 00:00:00 ET 41.0000 140.500 main 0 0 __O___________ -1 41.0000 140.500 9 23 1003 12 68
1949163N07145 1949 38 WP MM DELLA 1949-06-23 03:00:00 ET 41.2148 141.380 main 0 0 __P___________ -1 41.2148 141.380 9 23 1003 16 75
1949163N07145 1949 38 WP MM DELLA 1949-06-23 06:00:00 ET 41.4000 142.500 main 80 44 __O___________ -1 41.4000 142.500 9 23 1003 18 80
1949163N07145 1949 38 WP MM DELLA 1949-06-23 09:00:00 ET 41.5135 143.753 main 66 66 __P___________ -1 41.5135 143.753 9 1004 19 81
1949163N07145 1949 38 WP MM DELLA 1949-06-23 12:00:00 ET 41.7000 145.000 main 134 125 __O___________ -1 41.7000 145.000 9 1005 18 72
1949163N07145 1949 38 WP MM DELLA 1949-06-23 15:00:00 ET 42.0646 146.003 main 128 124 __P___________ -1 42.0646 146.003 9 1006 17 59
1949163N07145 1949 38 WP MM DELLA 1949-06-23 18:00:00 ET 42.6000 147.000 main 137 137 __O___________ -1 42.6000 147.000 9 1007 20 55
1949163N07145 1949 38 WP MM DELLA 1949-06-23 21:00:00 ET 43.2174 148.215 main 173 152 __P___________ -1 43.2174 148.215 9 1007 23 52
1949163N07145 1949 38 WP MM DELLA 1949-06-24 00:00:00 ET 44.0000 149.500 main 154 108 __O___________ -1 44.0000 149.500 9 1008 25 46
1949163N07145 1949 38 WP MM DELLA 1949-06-24 03:00:00 ET 44.9544 150.753 main 108 96 __P___________ -1 44.9544 150.753 9 1008 27 41
1949163N07145 1949 38 WP MM DELLA 1949-06-24 06:00:00 ET 46.0000 152.000 main 123 __O___________ -1 46.0000 152.000 9 1008 27 40

Digital Typhoon Data and Search

About IBTrACS Database

This database is a web-friendly format of International Best Track Archive for Climate Stewardship (IBTrACS), a global best track data archive curated by NOAA dating back to 1842.

Updated: 2021-10-27